Time,TemperatureF,DewpointF,PressureIn,WindDirection,WindDirectionDegrees,WindSpeedMPH,WindSpeedGustMPH,Humidity,HourlyPrecipIn,Conditions,Clouds,dailyrainin,SoftwareType,DateUTC
2013-04-12 00:00:00,62.5,60.4,29.70,SSW,202,0.0,0.0,93,0.19,,,0.18,Wunderground v.1.15,2013-04-12 04:00:00,
2013-04-12 00:05:00,62.5,60.4,29.69,SSW,202,0.0,0.0,93,0.23,,,0.02,Wunderground v.1.15,2013-04-12 04:05:00,
2013-04-12 00:10:00,62.5,60.4,29.69,SSW,202,0.0,0.0,93,0.24,,,0.05,Wunderground v.1.15,2013-04-12 04:10:00,
2013-04-12 00:15:00,62.5,60.4,29.67,SSW,202,0.0,0.0,93,0.21,,,0.06,Wunderground v.1.15,2013-04-12 04:15:00,
2013-04-12 00:20:00,62.5,60.4,29.67,SSW,202,0.0,0.0,93,0.20,,,0.08,Wunderground v.1.15,2013-04-12 04:20:00,
2013-04-12 00:25:00,62.4,60.3,29.67,SSW,202,0.0,0.0,93,0.22,,,0.10,Wunderground v.1.15,2013-04-12 04:25:00,
2013-04-12 00:35:00,62.3,60.2,29.68,SSW,202,0.0,0.0,93,0.06,,,0.10,Wunderground v.1.15,2013-04-12 04:35:00,
2013-04-12 00:40:00,62.2,60.2,29.68,SSW,202,0.0,0.0,93,0.05,,,0.11,Wunderground v.1.15,2013-04-12 04:40:00,
2013-04-12 00:45:00,62.1,60.1,29.68,SSW,202,0.0,0.0,93,0.05,,,0.11,Wunderground v.1.15,2013-04-12 04:45:00,
2013-04-12 00:55:00,62.2,60.2,29.69,WNW,300,2.0,5.0,93,0.43,,,0.17,Wunderground v.1.15,2013-04-12 04:55:00,
2013-04-12 01:00:00,62.0,60.0,29.69,West,273,3.0,5.0,93,0.27,,,0.19,Wunderground v.1.15,2013-04-12 05:00:00,
2013-04-12 01:10:00,61.5,59.2,29.69,NW,313,3.0,3.0,92,0.08,,,0.21,Wunderground v.1.15,2013-04-12 05:10:00,
2013-04-12 01:15:00,61.2,58.9,29.68,NW,308,2.0,6.0,92,0.38,,,0.24,Wunderground v.1.15,2013-04-12 05:15:00,
2013-04-12 01:20:00,61.0,58.4,29.69,WNW,294,3.0,3.0,91,0.26,,,0.27,Wunderground v.1.15,2013-04-12 05:20:00,
2013-04-12 01:25:00,60.8,58.5,29.69,NW,306,3.0,3.0,92,0.23,,,0.29,Wunderground v.1.15,2013-04-12 05:25:00,
2013-04-12 01:35:00,60.4,58.1,29.69,NNW,327,1.0,3.0,92,0.34,,,0.34,Wunderground v.1.15,2013-04-12 05:35:00,
2013-04-12 01:40:00,60.3,58.0,29.69,NNW,327,1.0,1.0,92,0.30,,,0.36,Wunderground v.1.15,2013-04-12 05:40:00,
2013-04-12 01:45:00,60.2,57.9,29.69,NNW,327,0.0,1.0,92,0.24,,,0.39,Wunderground v.1.15,2013-04-12 05:45:00,
2013-04-12 01:55:00,60.0,57.7,29.70,NNW,327,0.0,0.0,92,0.23,,,0.42,Wunderground v.1.15,2013-04-12 05:55:00,
2013-04-12 02:00:00,60.0,58.0,29.69,NNW,327,0.0,1.0,93,0.16,,,0.43,Wunderground v.1.15,2013-04-12 06:00:00,
2013-04-12 02:05:00,59.9,57.9,29.69,NNW,329,1.0,2.0,93,0.26,,,0.45,Wunderground v.1.15,2013-04-12 06:05:00,
2013-04-12 02:10:00,59.8,57.8,29.68,NNW,329,1.0,1.0,93,0.21,,,0.47,Wunderground v.1.15,2013-04-12 06:10:00,
2013-04-12 02:15:00,59.7,57.7,29.68,NNW,329,1.0,1.0,93,0.09,,,0.48,Wunderground v.1.15,2013-04-12 06:15:00,
2013-04-12 02:25:00,59.5,57.5,29.67,NNW,329,0.0,0.0,93,0.29,,,0.52,Wunderground v.1.15,2013-04-12 06:25:00,
2013-04-12 02:30:00,59.5,57.5,29.66,NNW,329,0.0,0.0,93,0.30,,,0.54,Wunderground v.1.15,2013-04-12 06:30:00,
2013-04-12 02:40:00,59.3,57.3,29.66,NNW,329,0.0,0.0,93,0.07,,,0.56,Wunderground v.1.15,2013-04-12 06:40:00,
2013-04-12 02:45:00,59.2,57.2,29.65,NNW,338,0.0,1.0,93,0.07,,,0.56,Wunderground v.1.15,2013-04-12 06:45:00,
2013-04-12 02:50:00,59.1,57.1,29.65,NNW,341,0.0,0.0,93,0.06,,,0.56,Wunderground v.1.15,2013-04-12 06:50:00,
2013-04-12 02:55:00,59.1,57.1,29.65,NNW,341,0.0,0.0,93,0.05,,,0.57,Wunderground v.1.15,2013-04-12 06:55:00,
2013-04-12 03:00:00,59.0,57.0,29.66,ESE,109,0.0,1.0,93,0.11,,,0.58,Wunderground v.1.15,2013-04-12 07:00:00,
2013-04-12 03:10:00,58.9,57.2,29.65,ESE,109,1.0,2.0,94,0.17,,,0.60,Wunderground v.1.15,2013-04-12 07:10:00,
2013-04-12 03:15:00,58.8,57.1,29.64,ESE,109,1.0,2.0,94,0.14,,,0.62,Wunderground v.1.15,2013-04-12 07:15:00,
2013-04-12 03:25:00,58.7,57.0,29.60,ESE,109,0.0,0.0,94,0.11,,,0.63,Wunderground v.1.15,2013-04-12 07:25:00,
2013-04-12 03:30:00,58.7,57.0,29.60,ESE,109,0.0,0.0,94,0.06,,,0.63,Wunderground v.1.15,2013-04-12 07:30:00,
2013-04-12 03:35:00,58.6,56.9,29.61,ESE,109,0.0,0.0,94,0.04,,,0.63,Wunderground v.1.15,2013-04-12 07:35:00,
2013-04-12 03:40:00,58.6,56.9,29.60,ESE,109,0.0,0.0,94,0.00,,,0.63,Wunderground v.1.15,2013-04-12 07:40:00,
2013-04-12 03:45:00,58.5,56.8,29.61,ESE,109,0.0,0.0,94,0.00,,,0.63,Wunderground v.1.15,2013-04-12 07:45:00,
2013-04-12 03:55:00,58.5,56.8,29.61,ESE,109,1.0,2.0,94,0.00,,,0.63,Wunderground v.1.15,2013-04-12 07:55:00,
2013-04-12 04:05:00,58.5,56.8,29.60,ESE,109,1.0,1.0,94,0.00,,,0.64,Wunderground v.1.15,2013-04-12 08:05:00,
2013-04-12 04:10:00,58.4,56.7,29.59,ESE,109,0.0,0.0,94,0.00,,,0.64,Wunderground v.1.15,2013-04-12 08:10:00,
2013-04-12 04:15:00,58.4,56.7,29.59,ESE,109,0.0,0.0,94,0.00,,,0.64,Wunderground v.1.15,2013-04-12 08:15:00,
2013-04-12 04:25:00,58.2,56.5,29.59,ESE,109,0.0,0.0,94,0.00,,,0.64,Wunderground v.1.15,2013-04-12 08:25:00,
2013-04-12 04:30:00,58.2,56.5,29.59,ESE,109,0.0,0.0,94,0.00,,,0.64,Wunderground v.1.15,2013-04-12 08:30:00,
2013-04-12 04:35:00,58.1,56.4,29.59,ESE,109,0.0,0.0,94,0.00,,,0.64,Wunderground v.1.15,2013-04-12 08:35:00,
2013-04-12 04:40:00,58.1,56.4,29.60,ESE,109,0.0,0.0,94,0.00,,,0.64,Wunderground v.1.15,2013-04-12 08:40:00,
2013-04-12 04:45:00,58.0,56.3,29.59,ESE,109,0.0,0.0,94,0.00,,,0.64,Wunderground v.1.15,2013-04-12 08:45:00,
2013-04-12 04:55:00,57.9,56.2,29.59,ESE,109,0.0,0.0,94,0.00,,,0.64,Wunderground v.1.15,2013-04-12 08:55:00,
2013-04-12 05:00:00,57.9,56.2,29.59,ESE,109,0.0,0.0,94,0.00,,,0.64,Wunderground v.1.15,2013-04-12 09:00:00,
2013-04-12 05:05:00,58.0,56.3,29.59,ESE,109,0.0,0.0,94,0.00,,,0.64,Wunderground v.1.15,2013-04-12 09:05:00,
2013-04-12 05:10:00,57.9,56.2,29.59,ESE,109,0.0,0.0,94,0.00,,,0.64,Wunderground v.1.15,2013-04-12 09:10:00,
2013-04-12 05:15:00,57.9,56.2,29.59,SE,133,0.0,4.0,94,0.00,,,0.64,Wunderground v.1.15,2013-04-12 09:15:00,
2013-04-12 05:25:00,58.0,56.3,29.59,SE,134,1.0,1.0,94,0.00,,,0.64,Wunderground v.1.15,2013-04-12 09:25:00,
2013-04-12 05:30:00,58.0,56.3,29.59,SSE,150,1.0,1.0,94,0.00,,,0.64,Wunderground v.1.15,2013-04-12 09:30:00,
2013-04-12 05:40:00,57.8,56.1,29.58,SSE,150,0.0,1.0,94,0.00,,,0.64,Wunderground v.1.15,2013-04-12 09:40:00,
2013-04-12 05:45:00,57.6,55.9,29.58,SSE,150,1.0,2.0,94,0.00,,,0.64,Wunderground v.1.15,2013-04-12 09:45:00,
2013-04-12 05:50:00,57.2,55.5,29.58,SSE,151,1.0,1.0,94,0.00,,,0.64,Wunderground v.1.15,2013-04-12 09:50:00,
2013-04-12 05:55:00,56.9,55.2,29.58,SSE,151,0.0,1.0,94,0.00,,,0.64,Wunderground v.1.15,2013-04-12 09:55:00,
2013-04-12 06:05:00,56.4,54.7,29.58,SSE,151,0.0,0.0,94,0.00,,,0.64,Wunderground v.1.15,2013-04-12 10:05:00,
2013-04-12 06:10:00,56.3,54.6,29.58,SSE,151,0.0,0.0,94,0.00,,,0.64,Wunderground v.1.15,2013-04-12 10:10:00,
2013-04-12 06:15:00,56.3,54.6,29.58,SSE,153,1.0,1.0,94,0.00,,,0.64,Wunderground v.1.15,2013-04-12 10:15:00,
2013-04-12 06:25:00,56.0,54.3,29.59,South,179,0.0,1.0,94,0.00,,,0.64,Wunderground v.1.15,2013-04-12 10:25:00,
2013-04-12 06:30:00,56.0,54.3,29.59,South,179,1.0,1.0,94,0.00,,,0.64,Wunderground v.1.15,2013-04-12 10:30:00,
2013-04-12 06:40:00,56.1,54.4,29.60,South,179,0.0,1.0,94,0.00,,,0.64,Wunderground v.1.15,2013-04-12 10:40:00,
2013-04-12 06:45:00,56.1,54.4,29.60,South,179,0.0,1.0,94,0.00,,,0.64,Wunderground v.1.15,2013-04-12 10:45:00,
2013-04-12 06:50:00,56.3,54.9,29.60,South,179,0.0,1.0,95,0.00,,,0.64,Wunderground v.1.15,2013-04-12 10:50:00,
2013-04-12 06:55:00,56.4,55.0,29.61,South,179,0.0,1.0,95,0.00,,,0.64,Wunderground v.1.15,2013-04-12 10:55:00,
2013-04-12 07:05:00,56.5,55.1,29.61,South,179,0.0,0.0,95,0.00,,,0.64,Wunderground v.1.15,2013-04-12 11:05:00,
2013-04-12 07:10:00,56.7,55.3,29.61,South,179,0.0,0.0,95,0.00,,,0.64,Wunderground v.1.15,2013-04-12 11:10:00,
2013-04-12 07:15:00,56.9,55.5,29.62,South,179,0.0,0.0,95,0.00,,,0.65,Wunderground v.1.15,2013-04-12 11:15:00,
2013-04-12 07:25:00,56.8,55.4,29.63,South,179,0.0,0.0,95,0.10,,,0.66,Wunderground v.1.15,2013-04-12 11:25:00,
2013-04-12 07:30:00,56.8,55.4,29.63,South,179,0.0,0.0,95,0.06,,,0.66,Wunderground v.1.15,2013-04-12 11:30:00,
2013-04-12 07:40:00,56.9,55.5,29.63,South,179,0.0,0.0,95,0.04,,,0.67,Wunderground v.1.15,2013-04-12 11:40:00,
2013-04-12 07:45:00,57.1,55.7,29.63,South,179,0.0,0.0,95,0.04,,,0.67,Wunderground v.1.15,2013-04-12 11:45:00,
2013-04-12 07:50:00,57.3,55.9,29.64,South,179,0.0,0.0,95,0.04,,,0.67,Wunderground v.1.15,2013-04-12 11:50:00,
2013-04-12 07:55:00,57.3,55.9,29.64,South,179,0.0,0.0,95,0.00,,,0.67,Wunderground v.1.15,2013-04-12 11:55:00,
2013-04-12 08:05:00,57.6,56.2,29.64,South,179,0.0,0.0,95,0.00,,,0.67,Wunderground v.1.15,2013-04-12 12:05:00,
2013-04-12 08:10:00,57.6,56.2,29.65,South,179,0.0,0.0,95,0.00,,,0.67,Wunderground v.1.15,2013-04-12 12:10:00,
2013-04-12 08:15:00,57.8,56.4,29.65,South,179,0.0,0.0,95,0.00,,,0.68,Wunderground v.1.15,2013-04-12 12:15:00,
2013-04-12 08:25:00,58.0,56.6,29.66,NW,309,1.0,2.0,95,0.00,,,0.68,Wunderground v.1.15,2013-04-12 12:25:00,
2013-04-12 08:30:00,58.1,56.7,29.66,NNW,346,1.0,1.0,95,0.00,,,0.68,Wunderground v.1.15,2013-04-12 12:30:00,
2013-04-12 08:35:00,58.1,56.7,29.66,NNW,346,1.0,1.0,95,0.00,,,0.68,Wunderground v.1.15,2013-04-12 12:35:00,
2013-04-12 08:40:00,58.2,56.8,29.66,NNW,342,0.0,0.0,95,0.00,,,0.68,Wunderground v.1.15,2013-04-12 12:40:00,
2013-04-12 08:50:00,58.4,57.0,29.67,NW,322,2.0,2.0,95,0.00,,,0.68,Wunderground v.1.15,2013-04-12 12:50:00,
2013-04-12 09:00:00,58.7,57.3,29.67,North,349,1.0,1.0,95,0.00,,,0.68,Wunderground v.1.15,2013-04-12 13:00:00,
2013-04-12 09:05:00,59.0,57.6,29.67,NNW,331,2.0,2.0,95,0.00,,,0.68,Wunderground v.1.15,2013-04-12 13:05:00,
2013-04-12 09:10:00,59.0,57.6,29.67,WSW,253,2.0,5.0,95,0.00,,,0.68,Wunderground v.1.15,2013-04-12 13:10:00,
2013-04-12 09:20:00,59.0,57.6,29.68,NNW,333,2.0,2.0,95,0.00,,,0.68,Wunderground v.1.15,2013-04-12 13:20:00,
2013-04-12 09:25:00,58.9,57.5,29.68,NNW,346,1.0,4.0,95,0.00,,,0.68,Wunderground v.1.15,2013-04-12 13:25:00,
2013-04-12 09:30:00,58.9,57.2,29.68,WNW,298,3.0,6.0,94,0.00,,,0.68,Wunderground v.1.15,2013-04-12 13:30:00,
2013-04-12 09:40:00,58.9,56.3,29.69,WNW,296,3.0,3.0,91,0.00,,,0.68,Wunderground v.1.15,2013-04-12 13:40:00,
2013-04-12 09:45:00,59.0,55.8,29.69,NW,316,4.0,4.0,89,0.00,,,0.68,Wunderground v.1.15,2013-04-12 13:45:00,
2013-04-12 09:55:00,59.1,55.2,29.69,NNW,340,4.0,5.0,87,0.00,,,0.68,Wunderground v.1.15,2013-04-12 13:55:00,
2013-04-12 10:00:00,59.1,55.2,29.69,NNW,346,3.0,5.0,87,0.00,,,0.68,Wunderground v.1.15,2013-04-12 14:00:00,
2013-04-12 10:05:00,59.0,55.1,29.69,NW,320,2.0,5.0,87,0.00,,,0.68,Wunderground v.1.15,2013-04-12 14:05:00,
2013-04-12 10:10:00,58.8,54.9,29.70,NNW,327,2.0,2.0,87,0.00,,,0.68,Wunderground v.1.15,2013-04-12 14:10:00,
2013-04-12 10:15:00,58.7,54.5,29.71,NW,311,2.0,5.0,86,0.00,,,0.68,Wunderground v.1.15,2013-04-12 14:15:00,
2013-04-12 10:25:00,58.8,54.0,29.71,North,5,4.0,8.0,84,0.00,,,0.68,Wunderground v.1.15,2013-04-12 14:25:00,
2013-04-12 10:30:00,59.1,53.9,29.71,NW,325,4.0,4.0,83,0.00,,,0.68,Wunderground v.1.15,2013-04-12 14:30:00,
2013-04-12 10:40:00,60.0,54.5,29.71,WNW,289,5.0,6.0,82,0.00,,,0.68,Wunderground v.1.15,2013-04-12 14:40:00,
2013-04-12 10:50:00,60.2,54.3,29.72,WNW,295,3.0,6.0,81,0.00,,,0.68,Wunderground v.1.15,2013-04-12 14:50:00,
2013-04-12 10:55:00,60.0,54.2,29.72,West,265,3.0,6.0,81,0.00,,,0.68,Wunderground v.1.15,2013-04-12 14:55:00,
2013-04-12 11:00:00,59.9,54.1,29.73,NNW,348,3.0,4.0,81,0.00,,,0.68,Wunderground v.1.15,2013-04-12 15:00:00,
2013-04-12 11:10:00,59.4,53.2,29.73,NNW,338,4.0,5.0,80,0.00,,,0.68,Wunderground v.1.15,2013-04-12 15:10:00,
2013-04-12 11:15:00,59.2,53.4,29.73,West,275,5.0,5.0,81,0.00,,,0.68,Wunderground v.1.15,2013-04-12 15:15:00,
2013-04-12 11:25:00,59.7,53.9,29.73,NNW,336,4.0,5.0,81,0.00,,,0.69,Wunderground v.1.15,2013-04-12 15:25:00,
2013-04-12 11:30:00,60.0,54.5,29.73,NNW,344,4.0,4.0,82,0.00,,,0.69,Wunderground v.1.15,2013-04-12 15:30:00,
2013-04-12 11:40:00,59.8,54.0,29.73,NNE,21,3.0,3.0,81,0.00,,,0.69,Wunderground v.1.15,2013-04-12 15:40:00,
2013-04-12 11:45:00,59.5,53.0,29.73,NW,323,4.0,5.0,79,0.00,,,0.69,Wunderground v.1.15,2013-04-12 15:45:00,
2013-04-12 11:50:00,59.2,53.0,29.73,NW,309,5.0,5.0,80,0.00,,,0.69,Wunderground v.1.15,2013-04-12 15:50:00,
2013-04-12 11:55:00,59.1,53.3,29.73,WNW,303,5.0,5.0,81,0.00,,,0.69,Wunderground v.1.15,2013-04-12 15:55:00,
2013-04-12 12:00:00,59.1,52.9,29.73,WNW,299,4.0,4.0,80,0.00,,,0.69,Wunderground v.1.15,2013-04-12 16:00:00,
2013-04-12 12:10:00,59.3,53.1,29.74,NW,313,4.0,9.0,80,0.00,,,0.69,Wunderground v.1.15,2013-04-12 16:10:00,
2013-04-12 12:15:00,59.1,52.9,29.74,SW,236,4.0,9.0,80,0.00,,,0.69,Wunderground v.1.15,2013-04-12 16:15:00,
2013-04-12 12:25:00,58.4,52.6,29.74,NW,321,6.0,12.0,81,0.00,,,0.69,Wunderground v.1.15,2013-04-12 16:25:00,
2013-04-12 12:30:00,58.6,52.8,29.74,NW,312,5.0,7.0,81,0.00,,,0.69,Wunderground v.1.15,2013-04-12 16:30:00,
2013-04-12 12:40:00,58.7,52.5,29.74,SSE,166,5.0,5.0,80,0.00,,,0.69,Wunderground v.1.15,2013-04-12 16:40:00,
2013-04-12 12:50:00,58.6,52.4,29.74,NNW,329,5.0,5.0,80,0.00,,,0.69,Wunderground v.1.15,2013-04-12 16:50:00,
2013-04-12 12:55:00,58.7,52.5,29.74,NW,324,5.0,5.0,80,0.00,,,0.69,Wunderground v.1.15,2013-04-12 16:55:00,
2013-04-12 13:00:00,58.7,52.5,29.74,North,350,5.0,5.0,80,0.00,,,0.69,Wunderground v.1.15,2013-04-12 17:00:00,
2013-04-12 13:10:00,59.3,52.4,29.74,NNW,342,6.0,7.0,78,0.00,,,0.69,Wunderground v.1.15,2013-04-12 17:10:00,
2013-04-12 13:20:00,59.0,52.5,29.73,North,5,4.0,4.0,79,0.00,,,0.69,Wunderground v.1.15,2013-04-12 17:20:00,
2013-04-12 13:25:00,59.1,52.2,29.74,North,355,5.0,5.0,78,0.00,,,0.69,Wunderground v.1.15,2013-04-12 17:25:00,
2013-04-12 13:35:00,59.2,51.3,29.74,West,269,5.0,7.0,75,0.00,,,0.69,Wunderground v.1.15,2013-04-12 17:35:00,
2013-04-12 13:40:00,59.2,51.6,29.74,NNW,344,5.0,8.0,76,0.00,,,0.69,Wunderground v.1.15,2013-04-12 17:40:00,
2013-04-12 13:45:00,59.2,50.5,29.74,North,355,6.0,8.0,73,0.00,,,0.69,Wunderground v.1.15,2013-04-12 17:45:00,
2013-04-12 13:55:00,59.7,51.8,29.74,North,350,4.0,7.0,75,0.00,,,0.69,Wunderground v.1.15,2013-04-12 17:55:00,
2013-04-12 14:00:00,60.2,50.0,29.75,South,170,5.0,5.0,69,0.00,,,0.69,Wunderground v.1.15,2013-04-12 18:00:00,
2013-04-12 14:10:00,61.5,51.2,29.74,NW,310,6.0,6.0,69,0.00,,,0.69,Wunderground v.1.15,2013-04-12 18:10:00,
2013-04-12 14:15:00,61.7,51.0,29.75,NW,321,6.0,8.0,68,0.00,,,0.69,Wunderground v.1.15,2013-04-12 18:15:00,
2013-04-12 14:25:00,62.0,49.7,29.74,NNW,342,5.0,9.0,64,0.00,,,0.69,Wunderground v.1.15,2013-04-12 18:25:00,
2013-04-12 15:30:00,63.6,45.6,29.75,NNW,329,6.0,11.0,52,0.00,,,0.69,Wunderground v.1.15,2013-04-12 19:30:00,
2013-04-12 15:35:00,63.4,47.4,29.75,NW,307,5.0,11.0,56,0.00,,,0.69,Wunderground v.1.15,2013-04-12 19:35:00,
2013-04-12 15:40:00,63.2,44.8,29.74,WNW,300,7.0,7.0,51,0.00,,,0.69,Wunderground v.1.15,2013-04-12 19:40:00,
2013-04-12 15:45:00,62.9,47.4,29.75,NW,304,7.0,11.0,57,0.00,,,0.69,Wunderground v.1.15,2013-04-12 19:45:00,
2013-04-12 15:55:00,63.2,45.8,29.75,NNW,339,4.0,7.0,53,0.00,,,0.69,Wunderground v.1.15,2013-04-12 19:55:00,
2013-04-12 16:00:00,62.8,44.9,29.75,WNW,284,6.0,7.0,52,0.00,,,0.69,Wunderground v.1.15,2013-04-12 20:00:00,
2013-04-12 16:10:00,62.8,44.9,29.75,NNE,24,6.0,7.0,52,0.00,,,0.69,Wunderground v.1.15,2013-04-12 20:10:00,
2013-04-12 16:15:00,62.7,46.3,29.75,NW,306,7.0,13.0,55,0.00,,,0.69,Wunderground v.1.15,2013-04-12 20:15:00,
2013-04-12 16:20:00,62.8,44.9,29.75,West,263,7.0,7.0,52,0.00,,,0.69,Wunderground v.1.15,2013-04-12 20:20:00,
2013-04-12 16:25:00,62.9,45.0,29.75,North,355,6.0,7.0,52,0.00,,,0.69,Wunderground v.1.15,2013-04-12 20:25:00,
2013-04-12 16:30:00,63.0,45.1,29.75,WNW,302,5.0,12.0,52,0.00,,,0.69,Wunderground v.1.15,2013-04-12 20:30:00,
2013-04-12 16:35:00,63.1,44.7,29.75,NW,308,4.0,12.0,51,0.00,,,0.69,Wunderground v.1.15,2013-04-12 20:35:00,
2013-04-12 16:40:00,63.1,43.6,29.75,SSW,213,4.0,6.0,49,0.00,,,0.69,Wunderground v.1.15,2013-04-12 20:40:00,
2013-04-12 16:50:00,62.9,43.4,29.75,North,355,6.0,6.0,49,0.00,,,0.69,Wunderground v.1.15,2013-04-12 20:50:00,
2013-04-12 16:55:00,62.9,44.5,29.75,West,279,5.0,6.0,51,0.00,,,0.69,Wunderground v.1.15,2013-04-12 20:55:00,
2013-04-12 17:00:00,63.3,44.9,29.76,NNW,338,4.0,5.0,51,0.00,,,0.69,Wunderground v.1.15,2013-04-12 21:00:00,
2013-04-12 17:05:00,63.2,43.7,29.76,West,269,4.0,7.0,49,0.00,,,0.69,Wunderground v.1.15,2013-04-12 21:05:00,
2013-04-12 17:10:00,63.1,44.2,29.76,WSW,249,4.0,5.0,50,0.00,,,0.69,Wunderground v.1.15,2013-04-12 21:10:00,
2013-04-12 17:20:00,62.7,44.3,29.76,WNW,299,7.0,9.0,51,0.00,,,0.69,Wunderground v.1.15,2013-04-12 21:20:00,
2013-04-12 17:25:00,62.8,43.3,29.76,NNW,346,7.0,9.0,49,0.00,,,0.69,Wunderground v.1.15,2013-04-12 21:25:00,
2013-04-12 17:30:00,62.8,43.9,29.76,SW,225,6.0,6.0,50,0.00,,,0.69,Wunderground v.1.15,2013-04-12 21:30:00,
2013-04-12 17:40:00,63.1,44.2,29.76,NW,311,4.0,8.0,50,0.00,,,0.69,Wunderground v.1.15,2013-04-12 21:40:00,
2013-04-12 17:45:00,63.1,44.2,29.76,SW,218,4.0,8.0,50,0.00,,,0.69,Wunderground v.1.15,2013-04-12 21:45:00,
2013-04-12 17:50:00,62.9,42.9,29.76,NW,315,5.0,5.0,48,0.00,,,0.69,Wunderground v.1.15,2013-04-12 21:50:00,
2013-04-12 17:55:00,62.8,42.8,29.76,WNW,297,6.0,6.0,48,0.00,,,0.69,Wunderground v.1.15,2013-04-12 21:55:00,
2013-04-12 18:00:00,62.9,44.0,29.76,WNW,293,5.0,5.0,50,0.00,,,0.69,Wunderground v.1.15,2013-04-12 22:00:00,
2013-04-12 18:10:00,62.8,42.8,29.76,West,280,5.0,8.0,48,0.00,,,0.69,Wunderground v.1.15,2013-04-12 22:10:00,
2013-04-12 18:15:00,62.4,43.0,29.76,NW,313,7.0,8.0,49,0.00,,,0.69,Wunderground v.1.15,2013-04-12 22:15:00,
2013-04-12 18:25:00,62.5,43.1,29.76,NNW,338,5.0,6.0,49,0.00,,,0.69,Wunderground v.1.15,2013-04-12 22:25:00,
2013-04-12 18:30:00,62.5,44.1,29.77,NW,323,4.0,6.0,51,0.00,,,0.69,Wunderground v.1.15,2013-04-12 22:30:00,
2013-04-12 18:35:00,62.3,43.9,29.77,NNW,338,4.0,6.0,51,0.00,,,0.69,Wunderground v.1.15,2013-04-12 22:35:00,
2013-04-12 18:40:00,62.2,43.3,29.77,NNW,329,5.0,7.0,50,0.00,,,0.69,Wunderground v.1.15,2013-04-12 22:40:00,
2013-04-12 18:45:00,62.0,43.1,29.77,WNW,299,5.0,7.0,50,0.00,,,0.69,Wunderground v.1.15,2013-04-12 22:45:00,
2013-04-12 18:55:00,62.0,44.2,29.77,NNW,337,3.0,5.0,52,0.00,,,0.69,Wunderground v.1.15,2013-04-12 22:55:00,
2013-04-12 19:00:00,61.9,43.0,29.77,West,276,3.0,6.0,50,0.00,,,0.69,Wunderground v.1.15,2013-04-12 23:00:00,
2013-04-12 19:10:00,61.3,42.5,29.78,NNW,331,4.0,4.0,50,0.00,,,0.69,Wunderground v.1.15,2013-04-12 23:10:00,
2013-04-12 19:15:00,60.7,43.0,29.77,WNW,302,4.0,4.0,52,0.00,,,0.69,Wunderground v.1.15,2013-04-12 23:15:00,
2013-04-12 19:25:00,59.9,42.2,29.78,NW,315,3.0,5.0,52,0.00,,,0.69,Wunderground v.1.15,2013-04-12 23:25:00,
2013-04-12 19:35:00,59.1,42.5,29.78,NW,310,2.0,2.0,54,0.00,,,0.69,Wunderground v.1.15,2013-04-12 23:35:00,
2013-04-12 19:40:00,58.7,43.0,29.78,NW,318,3.0,3.0,56,0.00,,,0.69,Wunderground v.1.15,2013-04-12 23:40:00,
2013-04-12 19:45:00,58.1,43.4,29.78,WNW,283,2.0,3.0,58,0.00,,,0.69,Wunderground v.1.15,2013-04-12 23:45:00,
2013-04-12 19:55:00,57.2,42.5,29.79,West,273,1.0,2.0,58,0.00,,,0.69,Wunderground v.1.15,2013-04-12 23:55:00,
2013-04-12 20:00:00,56.7,42.5,29.79,WNW,282,0.0,0.0,59,0.00,,,0.69,Wunderground v.1.15,2013-04-13 00:00:00,
2013-04-12 20:10:00,55.7,42.5,29.79,WNW,282,0.0,0.0,61,0.00,,,0.69,Wunderground v.1.15,2013-04-13 00:10:00,
2013-04-12 20:15:00,55.3,42.9,29.79,WNW,282,0.0,0.0,63,0.00,,,0.69,Wunderground v.1.15,2013-04-13 00:15:00,
2013-04-12 20:20:00,54.4,43.3,29.80,WNW,282,0.0,0.0,66,0.00,,,0.69,Wunderground v.1.15,2013-04-13 00:20:00,
2013-04-12 20:25:00,53.9,44.0,29.80,WNW,282,0.0,0.0,69,0.00,,,0.69,Wunderground v.1.15,2013-04-13 00:25:00,
2013-04-12 20:30:00,53.1,43.9,29.80,WNW,282,0.0,0.0,71,0.00,,,0.69,Wunderground v.1.15,2013-04-13 00:30:00,
2013-04-12 20:40:00,51.6,43.2,29.81,WNW,282,0.0,0.0,73,0.00,,,0.69,Wunderground v.1.15,2013-04-13 00:40:00,
2013-04-12 20:45:00,51.1,43.1,29.81,WNW,282,0.0,0.0,74,0.00,,,0.69,Wunderground v.1.15,2013-04-13 00:45:00,
2013-04-12 20:55:00,50.2,43.3,29.82,WNW,282,0.0,1.0,77,0.00,,,0.69,Wunderground v.1.15,2013-04-13 00:55:00,
2013-04-12 21:00:00,49.8,42.9,29.82,WNW,282,0.0,0.0,77,0.00,,,0.69,Wunderground v.1.15,2013-04-13 01:00:00,
2013-04-12 21:05:00,49.6,43.0,29.82,WNW,282,0.0,0.0,78,0.00,,,0.69,Wunderground v.1.15,2013-04-13 01:05:00,
2013-04-12 21:10:00,49.1,42.9,29.83,WNW,282,0.0,1.0,79,0.00,,,0.69,Wunderground v.1.15,2013-04-13 01:10:00,
2013-04-12 21:15:00,48.8,42.9,29.83,WNW,282,1.0,1.0,80,0.00,,,0.69,Wunderground v.1.15,2013-04-13 01:15:00,
2013-04-12 21:25:00,48.2,42.6,29.84,WNW,282,0.0,1.0,81,0.00,,,0.69,Wunderground v.1.15,2013-04-13 01:25:00,
2013-04-12 21:30:00,47.8,42.6,29.84,WNW,282,1.0,2.0,82,0.00,,,0.69,Wunderground v.1.15,2013-04-13 01:30:00,
2013-04-12 21:40:00,47.9,42.0,29.86,NW,311,1.0,1.0,80,0.00,,,0.69,Wunderground v.1.15,2013-04-13 01:40:00,
2013-04-12 21:45:00,48.6,41.4,29.86,NW,313,2.0,2.0,76,0.00,,,0.69,Wunderground v.1.15,2013-04-13 01:45:00,
2013-04-12 21:50:00,49.9,41.2,29.87,WNW,296,2.0,3.0,72,0.00,,,0.69,Wunderground v.1.15,2013-04-13 01:50:00,
2013-04-12 21:55:00,51.1,40.5,29.87,NW,311,3.0,3.0,67,0.00,,,0.69,Wunderground v.1.15,2013-04-13 01:55:00,
2013-04-12 22:00:00,51.1,41.7,29.87,WNW,302,3.0,5.0,70,0.00,,,0.69,Wunderground v.1.15,2013-04-13 02:00:00,
2013-04-12 22:10:00,51.2,40.6,29.88,NW,306,3.0,3.0,67,0.00,,,0.69,Wunderground v.1.15,2013-04-13 02:10:00,
2013-04-12 22:15:00,50.7,40.1,29.88,NW,307,3.0,3.0,67,0.00,,,0.69,Wunderground v.1.15,2013-04-13 02:15:00,
2013-04-12 22:25:00,50.6,39.7,29.88,NW,313,3.0,6.0,66,0.00,,,0.69,Wunderground v.1.15,2013-04-13 02:25:00,
2013-04-12 22:30:00,50.2,39.3,29.89,WNW,294,3.0,3.0,66,0.00,,,0.69,Wunderground v.1.15,2013-04-13 02:30:00,
2013-04-12 22:35:00,49.8,39.7,29.89,WNW,299,3.0,3.0,68,0.00,,,0.69,Wunderground v.1.15,2013-04-13 02:35:00,
2013-04-12 22:45:00,50.0,38.7,29.90,WNW,301,3.0,3.0,65,0.00,,,0.69,Wunderground v.1.15,2013-04-13 02:45:00,
2013-04-12 22:50:00,49.9,38.2,29.90,West,275,4.0,4.0,64,0.00,,,0.69,Wunderground v.1.15,2013-04-13 02:50:00,
2013-04-12 22:55:00,50.9,37.5,29.90,West,281,5.0,8.0,60,0.00,,,0.69,Wunderground v.1.15,2013-04-13 02:55:00,
2013-04-12 23:05:00,51.7,37.8,29.90,West,259,6.0,6.0,59,0.00,,,0.69,Wunderground v.1.15,2013-04-13 03:05:00,
2013-04-12 23:10:00,51.5,37.6,29.90,WNW,286,5.0,5.0,59,0.00,,,0.69,Wunderground v.1.15,2013-04-13 03:10:00,
2013-04-12 23:15:00,51.2,36.9,29.90,SW,229,4.0,6.0,58,0.00,,,0.69,Wunderground v.1.15,2013-04-13 03:15:00,
2013-04-12 23:25:00,51.1,36.4,29.91,West,277,4.0,5.0,57,0.00,,,0.69,Wunderground v.1.15,2013-04-13 03:25:00,
2013-04-12 23:30:00,51.3,37.0,29.91,West,261,5.0,5.0,58,0.00,,,0.69,Wunderground v.1.15,2013-04-13 03:30:00,
2013-04-12 23:35:00,50.9,37.9,29.92,WNW,292,3.0,5.0,61,0.00,,,0.69,Wunderground v.1.15,2013-04-13 03:35:00,
2013-04-12 23:40:00,50.4,37.4,29.92,West,265,2.0,3.0,61,0.00,,,0.69,Wunderground v.1.15,2013-04-13 03:40:00,
2013-04-12 23:45:00,49.9,38.2,29.92,WNW,299,2.0,3.0,64,0.00,,,0.69,Wunderground v.1.15,2013-04-13 03:45:00,
2013-04-12 23:55:00,49.4,37.3,29.92,West,275,1.0,2.0,63,0.00,,,0.69,Wunderground v.1.15,2013-04-13 03:55:00,